EST,Max TemperatureF,Mean TemperatureF,Min TemperatureF,Max Dew PointF,MeanDew PointF,Min DewpointF,Max Humidity, Mean Humidity, Min Humidity, Max Sea Level PressureIn, Mean Sea Level PressureIn, Min Sea Level PressureIn, Max VisibilityMiles, Mean VisibilityMiles, Min VisibilityMiles, Max Wind SpeedMPH, Mean Wind SpeedMPH, Max Gust SpeedMPH,PrecipitationIn, CloudCover, Events, WindDirDegrees
2012-11-1,53,47,41,40,38,36,82,73,61,29.60,29.57,29.55,10,10,10,10,6,,0.00,6,,231
2012-11-2,51,46,41,39,34,30,76,64,48,29.73,29.63,29.59,10,10,7,14,7,20,0.01,6,Rain,274
2012-11-3,50,42,37,32,30,27,79,61,44,29.92,29.82,29.73,10,10,10,14,7,23,0.00,4,,305
2012-11-4,50,40,30,32,30,27,85,66,50,29.99,29.95,29.92,10,10,10,13,5,17,0.00,3,,337
2012-11-5,41,36,26,26,22,17,71,55,47,30.19,30.07,30.00,10,10,10,13,9,21,0.00,4,,343
2012-11-6,42,30,19,21,19,16,92,65,36,30.26,30.20,30.13,10,10,10,8,1,,0.00,0,,58
2012-11-7,37,34,30,32,27,18,96,82,56,30.13,29.89,29.78,10,3,0,18,10,29,0.15,6,Fog-Snow,18
2012-11-8,42,37,32,28,26,22,87,66,51,29.90,29.79,29.74,10,8,2,20,12,30,0.02,8,Rain-Snow,344
2012-11-9,52,43,34,31,23,14,85,52,31,30.20,30.05,29.90,10,10,10,12,8,26,0.00,1,,315
2012-11-10,52,41,30,41,35,30,96,78,59,30.44,30.32,30.20,10,8,6,8,2,,0.00,4,,236
2012-11-11,63,48,34,49,42,33,100,84,54,30.51,30.47,30.43,10,7,2,10,2,,0.00,1,,180
2012-11-12,64,52,39,58,51,39,100,91,72,30.48,30.39,30.21,10,6,0,13,4,25,0.00,6,Fog,179
2012-11-13,62,50,36,58,41,24,93,82,60,30.46,30.29,30.13,10,9,2,17,9,24,0.12,7,Rain,336
2012-11-14,46,36,26,28,25,23,96,62,46,30.55,30.50,30.47,10,10,10,10,4,16,0.00,0,,3
2012-11-15,44,34,24,28,25,22,92,75,47,30.48,30.40,30.32,10,10,10,9,2,,0.00,0,,23
2012-11-16,46,37,28,28,25,19,92,65,45,30.45,30.36,30.31,10,10,10,10,2,,0.00,0,,349
2012-11-17,51,37,23,30,26,21,92,72,43,30.66,30.59,30.46,10,10,8,9,2,,0.00,0,,348
2012-11-18,48,36,23,30,26,21,92,74,47,30.71,30.66,30.61,10,9,5,7,1,,0.00,0,,70
2012-11-19,48,34,21,35,27,21,96,81,56,30.60,30.44,30.28,10,9,7,7,1,,0.00,1,,72
2012-11-20,48,36,24,32,26,21,100,81,46,30.27,30.20,30.14,10,8,1,5,0,,0.00,2,,233
2012-11-21,52,40,28,33,26,19,92,69,27,30.27,30.22,30.17,10,9,6,6,1,,0.00,0,,50
2012-11-22,55,40,25,38,30,22,92,78,45,30.30,30.23,30.15,10,8,5,4,0,,0.00,0,,330
2012-11-23,55,40,26,45,35,24,100,82,45,30.14,29.93,29.67,10,6,0,12,1,,0.04,2,Fog-Rain,197
2012-11-24,46,40,33,43,21,14,86,49,36,29.80,29.72,29.65,10,10,7,16,10,26,0.00,6,,288
2012-11-25,37,34,32,23,19,15,66,53,43,29.95,29.87,29.80,10,10,10,14,9,23,0.00,4,,263
2012-11-26,45,34,24,22,20,18,81,55,34,30.27,30.10,29.94,10,10,9,17,6,28,0.00,3,,268
2012-11-27,35,30,27,33,30,21,96,89,75,30.32,30.27,30.22,10,4,0,6,1,,0.19,8,Fog-Snow,45
2012-11-28,39,33,27,31,24,19,96,71,50,30.25,30.21,30.17,10,10,4,10,5,,0.00,4,,283
2012-11-29,42,32,21,25,22,19,89,67,43,30.34,30.29,30.25,10,10,8,12,5,20,0.00,0,,233
2012-11-30,41,33,25,27,24,19,89,72,57,30.49,30.41,30.31,10,9,6,9,3,,0.00,5,,64